createdAt,value
2018-06-22T01:30:03.756Z,0.00
2018-06-22T01:30:04.315Z,0.00
2018-06-22T01:30:04.913Z,0.00
2018-06-22T01:30:05.515Z,0.00
2018-06-22T01:30:06.113Z,0.00
2018-06-22T01:30:06.712Z,0.00
2018-06-22T01:30:07.312Z,0.00
2018-06-22T01:30:07.913Z,0.00
2018-06-22T01:31:02.420Z,0.00
2018-06-22T01:31:02.989Z,0.00
2018-06-22T01:31:03.592Z,0.00
2018-06-22T01:31:04.189Z,0.00
2018-06-22T01:31:04.789Z,0.00
2018-06-22T01:31:05.391Z,0.00
2018-06-22T01:31:05.990Z,0.00
2018-06-22T01:31:06.589Z,0.00
2018-06-22T01:32:00.077Z,0.00
2018-06-22T01:32:00.645Z,0.00
2018-06-22T01:32:01.248Z,0.00
2018-06-22T01:32:01.844Z,0.00
2018-06-22T01:32:02.444Z,0.00
2018-06-22T01:32:03.044Z,0.00
2018-06-22T01:32:03.643Z,0.00
2018-06-22T01:32:04.245Z,0.00
2018-06-22T01:32:57.728Z,0.00
2018-06-22T01:32:58.297Z,0.00
2018-06-22T01:32:58.899Z,0.00
2018-06-22T01:32:59.496Z,0.00
2018-06-22T01:33:00.100Z,0.00
2018-06-22T01:33:00.697Z,0.00
2018-06-22T01:33:01.296Z,0.00
2018-06-22T01:33:01.896Z,0.00
2018-06-22T01:33:56.400Z,0.00
2018-06-22T01:33:56.973Z,0.00
2018-06-22T01:33:57.572Z,0.00
2018-06-22T01:33:58.170Z,0.00
2018-06-22T01:33:58.775Z,0.00
2018-06-22T01:33:59.373Z,0.00
2018-06-22T01:33:59.970Z,0.00
2018-06-22T01:34:00.571Z,0.00
2018-06-22T01:34:54.054Z,0.00
2018-06-22T01:34:54.625Z,0.00
2018-06-22T01:34:55.224Z,0.00
2018-06-22T01:34:55.825Z,0.00
2018-06-22T01:34:56.428Z,0.00
2018-06-22T01:34:57.024Z,0.00
2018-06-22T01:34:57.623Z,0.00
2018-06-22T01:34:58.224Z,0.00
2018-06-22T01:35:51.705Z,0.00
2018-06-22T01:35:52.276Z,0.00
2018-06-22T01:35:52.876Z,0.00
2018-06-22T01:35:53.476Z,0.00
2018-06-22T01:35:54.078Z,0.00
2018-06-22T01:35:54.676Z,0.00
2018-06-22T01:35:55.276Z,0.00
2018-06-22T01:35:55.876Z,0.00
2018-06-22T01:36:49.357Z,0.00
2018-06-22T01:36:49.928Z,0.00
2018-06-22T01:36:50.529Z,0.00
2018-06-22T01:36:51.128Z,0.00
2018-06-22T01:36:51.728Z,0.00
2018-06-22T01:36:52.329Z,0.00
2018-06-22T01:36:52.929Z,0.00
2018-06-22T01:36:53.528Z,0.00
2018-06-22T01:37:48.031Z,0.00
2018-06-22T01:37:48.604Z,0.00
2018-06-22T01:37:49.204Z,0.00
2018-06-22T01:37:49.804Z,0.00
2018-06-22T01:37:50.404Z,0.00
2018-06-22T01:37:51.004Z,0.00
2018-06-22T01:37:51.605Z,0.00
2018-06-22T01:37:52.203Z,0.00
2018-06-22T01:38:46.707Z,0.00
2018-06-22T01:38:47.281Z,0.00
2018-06-22T01:38:47.883Z,0.00
2018-06-22T01:38:48.480Z,0.00
2018-06-22T01:38:49.079Z,0.00
2018-06-22T01:38:49.679Z,0.00
2018-06-22T01:38:50.278Z,0.00
2018-06-22T01:38:50.878Z,0.00
2018-06-22T01:39:45.382Z,0.00
2018-06-22T01:39:45.956Z,0.00
2018-06-22T01:39:46.555Z,0.00
2018-06-22T01:39:47.155Z,0.00
2018-06-22T01:39:47.754Z,0.00
2018-06-22T01:39:48.356Z,0.00
2018-06-22T01:39:48.954Z,0.00
2018-06-22T01:39:49.555Z,0.00
2018-06-22T01:40:43.038Z,0.00
2018-06-22T01:40:43.608Z,0.00
2018-06-22T01:40:44.210Z,0.00
2018-06-22T01:40:44.808Z,0.00
2018-06-22T01:40:45.408Z,0.00
2018-06-22T01:40:46.008Z,0.00
2018-06-22T01:40:46.608Z,0.00
2018-06-22T01:40:47.208Z,0.00
2018-06-22T01:41:40.690Z,0.00
2018-06-22T01:41:41.259Z,0.00
2018-06-22T01:41:41.860Z,0.00
2018-06-22T01:41:42.460Z,0.00
2018-06-22T01:41:43.061Z,0.00
2018-06-22T01:41:43.663Z,0.00
2018-06-22T01:41:44.260Z,0.00
2018-06-22T01:41:44.858Z,0.00
2018-06-22T01:42:38.341Z,0.00
2018-06-22T01:42:38.911Z,0.00
2018-06-22T01:42:39.512Z,0.00
2018-06-22T01:42:40.112Z,0.00
2018-06-22T01:42:40.711Z,0.00
2018-06-22T01:42:41.315Z,0.00
2018-06-22T01:42:41.912Z,0.00
2018-06-22T01:42:42.510Z,0.00
2018-06-22T01:43:35.993Z,0.00
2018-06-22T01:43:36.566Z,0.00
2018-06-22T01:43:37.163Z,0.00
2018-06-22T01:43:37.763Z,0.00
2018-06-22T01:43:38.364Z,0.00
2018-06-22T01:43:38.967Z,0.00
2018-06-22T01:43:39.563Z,0.00
2018-06-22T01:43:40.162Z,0.00
2018-06-22T01:44:33.645Z,0.00
2018-06-22T01:44:34.214Z,0.00
2018-06-22T01:44:34.815Z,0.00
2018-06-22T01:44:35.414Z,0.00
2018-06-22T01:44:36.015Z,0.00
2018-06-22T01:44:36.613Z,0.00
2018-06-22T01:44:37.214Z,0.00
2018-06-22T01:44:37.814Z,0.00
2018-06-22T01:45:32.321Z,0.00
2018-06-22T01:45:32.891Z,0.00
2018-06-22T01:45:33.490Z,0.00
2018-06-22T01:45:34.090Z,0.00
2018-06-22T01:45:34.690Z,0.00
2018-06-22T01:45:35.290Z,0.00
2018-06-22T01:45:35.889Z,0.00
2018-06-22T01:45:36.489Z,0.00
2018-06-22T01:46:29.971Z,0.00
2018-06-22T01:46:30.542Z,0.00
2018-06-22T01:46:31.141Z,0.00
2018-06-22T01:46:31.742Z,0.00
2018-06-22T01:46:32.342Z,0.00
2018-06-22T01:46:32.947Z,0.00
2018-06-22T01:46:33.544Z,0.00
2018-06-22T01:46:34.143Z,0.00
2018-06-22T01:47:28.646Z,0.00
2018-06-22T01:47:29.217Z,0.00
2018-06-22T01:47:29.818Z,0.00
2018-06-22T01:47:30.417Z,0.00
2018-06-22T01:47:31.017Z,0.00
2018-06-22T01:47:31.617Z,0.00
2018-06-22T01:47:32.216Z,0.00
2018-06-22T01:47:32.818Z,0.00
2018-06-22T01:48:26.299Z,0.00
2018-06-22T01:48:26.871Z,0.00
2018-06-22T01:48:27.470Z,0.00
2018-06-22T01:48:28.070Z,0.00
2018-06-22T01:48:28.669Z,0.00
2018-06-22T01:48:29.280Z,0.00
2018-06-22T01:48:29.868Z,0.00
2018-06-22T01:48:30.474Z,0.00
2018-06-22T01:49:24.973Z,0.00
2018-06-22T01:49:25.545Z,0.00
2018-06-22T01:49:26.145Z,0.00
2018-06-22T01:49:26.746Z,0.00
2018-06-22T01:49:27.346Z,0.00
2018-06-22T01:49:27.945Z,0.00
2018-06-22T01:49:28.546Z,0.00
2018-06-22T01:49:29.145Z,0.00
2018-06-22T01:50:23.649Z,0.00
2018-06-22T01:50:24.223Z,0.00
2018-06-22T01:50:24.820Z,0.00
2018-06-22T01:50:25.423Z,0.00
2018-06-22T01:50:26.021Z,0.00
2018-06-22T01:50:26.620Z,0.00
2018-06-22T01:50:27.220Z,0.00
2018-06-22T01:50:27.818Z,0.00
2018-06-22T01:51:21.303Z,0.00
2018-06-22T01:51:21.873Z,0.00
2018-06-22T01:51:22.475Z,0.00
2018-06-22T01:51:23.074Z,0.00
2018-06-22T01:51:23.674Z,0.00
2018-06-22T01:51:24.272Z,0.00
2018-06-22T01:51:24.873Z,0.00
2018-06-22T01:51:25.474Z,0.00
2018-06-22T01:52:18.955Z,0.00
2018-06-22T01:52:19.525Z,0.00
2018-06-22T01:52:20.124Z,0.00
2018-06-22T01:52:20.725Z,0.00
2018-06-22T01:52:21.325Z,0.00
2018-06-22T01:52:21.925Z,0.00
2018-06-22T01:52:22.527Z,0.00
2018-06-22T01:52:23.124Z,0.00
2018-06-22T01:53:17.628Z,0.00
2018-06-22T01:53:18.200Z,0.00
2018-06-22T01:53:18.800Z,0.00
2018-06-22T01:53:19.400Z,0.00
2018-06-22T01:53:20.000Z,0.00
2018-06-22T01:53:20.600Z,0.00
2018-06-22T01:53:21.199Z,0.00
2018-06-22T01:53:21.799Z,0.00
2018-06-22T01:54:16.306Z,0.00
2018-06-22T01:54:16.874Z,0.00
2018-06-22T01:54:17.475Z,0.00
2018-06-22T01:54:18.076Z,0.00
2018-06-22T01:54:18.675Z,0.00
2018-06-22T01:54:19.275Z,0.00
2018-06-22T01:54:19.875Z,0.00
2018-06-22T01:54:20.476Z,0.00
2018-06-22T01:55:14.981Z,0.00
2018-06-22T01:55:15.554Z,0.00
2018-06-22T01:55:16.153Z,0.00
2018-06-22T01:55:16.752Z,0.00
2018-06-22T01:55:17.352Z,0.00
2018-06-22T01:55:17.951Z,0.00
2018-06-22T01:55:18.551Z,0.00
2018-06-22T01:55:19.151Z,0.00
2018-06-22T01:56:12.632Z,0.00
2018-06-22T01:56:13.204Z,0.00
2018-06-22T01:56:13.805Z,0.00
2018-06-22T01:56:14.405Z,0.00
2018-06-22T01:56:15.005Z,0.00
2018-06-22T01:56:15.607Z,0.00
2018-06-22T01:56:16.205Z,0.00
2018-06-22T01:56:16.805Z,0.00
2018-06-22T01:57:10.284Z,0.00
2018-06-22T01:57:10.857Z,0.00
2018-06-22T01:57:11.454Z,0.00
2018-06-22T01:57:12.056Z,0.00
2018-06-22T01:57:12.656Z,0.00
2018-06-22T01:57:13.254Z,0.00
2018-06-22T01:57:13.854Z,0.00
2018-06-22T01:57:14.455Z,0.00
2018-06-22T01:58:07.940Z,0.00
2018-06-22T01:58:08.509Z,0.00
2018-06-22T01:58:09.107Z,0.00
2018-06-22T01:58:09.707Z,0.00
2018-06-22T01:58:10.306Z,0.00
2018-06-22T01:58:10.906Z,0.00
2018-06-22T01:58:11.508Z,0.00
2018-06-22T01:58:12.108Z,0.00
2018-06-22T01:59:05.587Z,0.00
2018-06-22T01:59:06.161Z,0.00
2018-06-22T01:59:06.764Z,0.00
2018-06-22T01:59:07.359Z,0.00
2018-06-22T01:59:07.962Z,0.00
2018-06-22T01:59:08.564Z,0.00
2018-06-22T01:59:09.159Z,0.00
2018-06-22T01:59:09.758Z,0.00
2018-06-22T02:00:03.246Z,0.00
2018-06-22T02:00:03.812Z,0.00
2018-06-22T02:00:04.412Z,0.00
2018-06-22T02:00:05.011Z,0.00
2018-06-22T02:00:05.611Z,0.00
2018-06-22T02:00:06.213Z,0.00
2018-06-22T02:00:06.811Z,0.00
2018-06-22T02:00:07.411Z,0.00
2018-06-22T02:01:00.891Z,0.00
2018-06-22T02:01:01.463Z,0.00
2018-06-22T02:01:02.063Z,0.00
2018-06-22T02:01:02.663Z,0.00
2018-06-22T02:01:03.268Z,0.00
2018-06-22T02:01:03.869Z,0.00
2018-06-22T02:01:04.464Z,0.00
2018-06-22T02:01:05.063Z,0.00
2018-06-22T02:01:59.566Z,0.00
2018-06-22T02:02:00.139Z,0.00
2018-06-22T02:02:00.737Z,0.00
2018-06-22T02:02:01.337Z,0.00
2018-06-22T02:02:01.938Z,0.00
2018-06-22T02:02:02.541Z,0.00
2018-06-22T02:02:03.137Z,0.00
2018-06-22T02:02:03.738Z,0.00
2018-06-22T02:02:57.219Z,0.00
2018-06-22T02:02:57.790Z,0.00
2018-06-22T02:02:58.390Z,0.00
2018-06-22T02:02:58.989Z,0.00
2018-06-22T02:02:59.591Z,0.00
2018-06-22T02:03:00.194Z,0.00
2018-06-22T02:03:00.790Z,0.00
2018-06-22T02:03:01.392Z,0.00
2018-06-22T02:03:55.894Z,0.00
2018-06-22T02:03:56.466Z,0.00
2018-06-22T02:03:57.064Z,0.00
2018-06-22T02:03:57.665Z,0.00
2018-06-22T02:03:58.266Z,0.00
2018-06-22T02:03:58.864Z,0.00
2018-06-22T02:03:59.465Z,0.00
2018-06-22T02:04:00.064Z,0.00
2018-06-22T02:04:53.553Z,0.00
2018-06-22T02:04:54.122Z,0.00
2018-06-22T02:04:54.718Z,0.00
2018-06-22T02:04:55.319Z,0.00
2018-06-22T02:04:55.917Z,0.00
2018-06-22T02:04:56.520Z,0.00
2018-06-22T02:04:57.116Z,0.00
2018-06-22T02:04:57.718Z,0.00
2018-06-22T02:05:51.245Z,0.00
2018-06-22T02:05:51.794Z,0.00
2018-06-22T02:05:52.397Z,0.00
2018-06-22T02:05:52.999Z,0.00
2018-06-22T02:05:53.602Z,0.00
2018-06-22T02:05:54.206Z,0.00
2018-06-22T02:05:54.774Z,0.00
2018-06-22T02:05:55.489Z,0.00
2018-06-22T02:06:49.873Z,0.00
2018-06-22T02:06:50.445Z,0.00
2018-06-22T02:06:51.045Z,0.00
2018-06-22T02:06:51.644Z,0.00
2018-06-22T02:06:52.249Z,0.00
2018-06-22T02:06:52.851Z,0.00
2018-06-22T02:06:53.443Z,0.00
2018-06-22T02:06:54.043Z,0.00
2018-06-22T02:07:47.525Z,0.00
2018-06-22T02:07:48.099Z,0.00
2018-06-22T02:07:48.699Z,0.00
2018-06-22T02:07:49.297Z,0.00
2018-06-22T02:07:49.896Z,0.00
2018-06-22T02:07:50.498Z,0.00
2018-06-22T02:07:51.100Z,0.00
2018-06-22T02:07:51.697Z,0.00
2018-06-22T02:08:46.201Z,0.00
2018-06-22T02:08:46.772Z,0.00
2018-06-22T02:08:47.372Z,0.00
2018-06-22T02:08:47.972Z,0.00
2018-06-22T02:08:48.575Z,0.00
2018-06-22T02:08:49.171Z,0.00
2018-06-22T02:08:49.772Z,0.00
2018-06-22T02:08:50.372Z,0.00
2018-06-22T02:09:44.876Z,0.00
2018-06-22T02:09:45.448Z,0.00
2018-06-22T02:09:46.052Z,0.00
2018-06-22T02:09:46.648Z,0.00
2018-06-22T02:09:47.249Z,0.00
2018-06-22T02:09:47.850Z,0.00
2018-06-22T02:09:48.448Z,0.00
2018-06-22T02:09:49.048Z,0.00
2018-06-22T02:10:42.528Z,0.00
2018-06-22T02:10:43.105Z,0.00
2018-06-22T02:10:43.699Z,0.00
2018-06-22T02:10:44.299Z,0.00
2018-06-22T02:10:44.906Z,0.00
2018-06-22T02:10:45.502Z,0.00
2018-06-22T02:10:46.099Z,0.00
2018-06-22T02:10:46.701Z,0.00
2018-06-22T02:11:40.180Z,0.00
2018-06-22T02:11:40.752Z,0.00
2018-06-22T02:11:41.351Z,0.00
2018-06-22T02:11:41.953Z,0.00
2018-06-22T02:11:42.552Z,0.00
2018-06-22T02:11:43.153Z,0.00
2018-06-22T02:11:43.753Z,0.00
2018-06-22T02:11:44.352Z,0.00
2018-06-22T02:12:37.837Z,0.00
2018-06-22T02:12:38.404Z,0.00
2018-06-22T02:12:39.004Z,0.00
2018-06-22T02:12:39.603Z,0.00
2018-06-22T02:12:40.204Z,0.00
2018-06-22T02:12:40.805Z,0.00
2018-06-22T02:12:41.407Z,0.00
2018-06-22T02:12:42.004Z,0.00
2018-06-22T02:13:35.483Z,0.00
2018-06-22T02:13:36.057Z,0.00
2018-06-22T02:13:36.656Z,0.00
2018-06-22T02:13:37.255Z,0.00
2018-06-22T02:13:37.857Z,0.00
2018-06-22T02:13:38.457Z,0.00
2018-06-22T02:13:39.055Z,0.00
2018-06-22T02:13:39.654Z,0.00
2018-06-22T02:14:34.157Z,0.00
2018-06-22T02:14:34.730Z,0.00
2018-06-22T02:14:35.333Z,0.00
2018-06-22T02:14:35.934Z,0.00
2018-06-22T02:14:36.529Z,0.00
2018-06-22T02:14:37.128Z,0.00
2018-06-22T02:14:37.729Z,0.00
2018-06-22T02:14:38.329Z,0.00
2018-06-22T02:15:31.821Z,0.00
2018-06-22T02:15:32.382Z,0.00
2018-06-22T02:15:32.982Z,0.00
2018-06-22T02:15:33.582Z,0.00
2018-06-22T02:15:34.183Z,0.00
2018-06-22T02:15:34.786Z,0.00
2018-06-22T02:15:35.386Z,0.00
2018-06-22T02:15:35.982Z,0.00
2018-06-22T02:16:29.462Z,0.00
2018-06-22T02:16:30.039Z,0.00
2018-06-22T02:16:30.635Z,0.00
2018-06-22T02:16:31.234Z,0.00
2018-06-22T02:16:31.834Z,0.00
2018-06-22T02:16:32.439Z,0.00
2018-06-22T02:16:33.033Z,0.00
2018-06-22T02:16:33.633Z,0.00
2018-06-22T02:17:28.138Z,0.00
2018-06-22T02:17:28.709Z,0.00
2018-06-22T02:17:29.308Z,0.00
2018-06-22T02:17:29.909Z,0.00
2018-06-22T02:17:30.508Z,0.00
2018-06-22T02:17:31.108Z,0.00
2018-06-22T02:17:31.709Z,0.00
2018-06-22T02:17:32.309Z,0.00
2018-06-22T02:18:25.796Z,4.00
2018-06-22T02:18:26.361Z,4.00
2018-06-22T02:18:26.963Z,4.00
2018-06-22T02:18:27.561Z,4.00
2018-06-22T02:18:28.161Z,4.00
2018-06-22T02:18:28.764Z,4.00
2018-06-22T02:18:29.361Z,4.00
2018-06-22T02:18:29.960Z,4.00
2018-06-22T02:19:23.442Z,4.00
2018-06-22T02:19:24.014Z,0.00
2018-06-22T02:19:24.613Z,4.00
2018-06-22T02:19:25.213Z,0.00
2018-06-22T02:19:25.812Z,0.00
2018-06-22T02:19:26.415Z,4.00
2018-06-22T02:19:27.012Z,0.00
2018-06-22T02:19:27.612Z,0.00
2018-06-22T02:20:22.117Z,0.00
2018-06-22T02:20:22.689Z,0.00
2018-06-22T02:20:23.288Z,0.00
2018-06-22T02:20:23.889Z,0.00
2018-06-22T02:20:24.489Z,0.00
2018-06-22T02:20:25.091Z,0.00
2018-06-22T02:20:25.688Z,0.00
2018-06-22T02:20:26.289Z,0.00
2018-06-22T02:21:20.793Z,0.00
2018-06-22T02:21:21.365Z,0.00
2018-06-22T02:21:21.964Z,0.00
2018-06-22T02:21:22.563Z,0.00
2018-06-22T02:21:23.165Z,0.00
2018-06-22T02:21:23.768Z,0.00
2018-06-22T02:21:24.365Z,0.00
2018-06-22T02:21:24.964Z,0.00
2018-06-22T02:22:18.444Z,4.00
2018-06-22T02:22:19.020Z,4.00
2018-06-22T02:22:19.614Z,4.00
2018-06-22T02:22:20.215Z,4.00
2018-06-22T02:22:20.815Z,4.00
2018-06-22T02:22:21.415Z,4.00
2018-06-22T02:22:22.014Z,4.00
2018-06-22T02:22:22.618Z,4.00
2018-06-22T02:23:17.121Z,4.00
2018-06-22T02:23:17.692Z,4.00
2018-06-22T02:23:18.292Z,4.00
2018-06-22T02:23:18.891Z,4.00
2018-06-22T02:23:19.491Z,4.00
2018-06-22T02:23:20.097Z,4.00
2018-06-22T02:23:20.692Z,4.00
2018-06-22T02:23:21.291Z,4.00
2018-06-22T02:24:15.794Z,0.00
2018-06-22T02:24:16.366Z,0.00
2018-06-22T02:24:16.971Z,0.00
2018-06-22T02:24:17.567Z,0.00
2018-06-22T02:24:18.166Z,0.00
2018-06-22T02:24:18.768Z,0.00
2018-06-22T02:24:19.366Z,0.00
2018-06-22T02:24:19.966Z,0.00
2018-06-22T02:25:14.472Z,0.00
2018-06-22T02:25:15.043Z,0.00
2018-06-22T02:25:15.643Z,0.00
2018-06-22T02:25:16.243Z,0.00
2018-06-22T02:25:16.843Z,0.00
2018-06-22T02:25:17.442Z,0.00
2018-06-22T02:25:18.043Z,0.00
2018-06-22T02:25:18.643Z,0.00
2018-06-22T02:26:12.123Z,0.00
2018-06-22T02:26:12.697Z,0.00
2018-06-22T02:26:13.296Z,0.00
2018-06-22T02:26:13.895Z,0.00
2018-06-22T02:26:14.495Z,0.00
2018-06-22T02:26:15.099Z,0.00
2018-06-22T02:26:15.694Z,0.00
2018-06-22T02:26:16.294Z,0.00
2018-06-22T02:27:09.781Z,4.00
2018-06-22T02:27:10.347Z,4.00
2018-06-22T02:27:10.946Z,4.00
2018-06-22T02:27:11.545Z,4.00
2018-06-22T02:27:12.145Z,4.00
2018-06-22T02:27:12.749Z,4.00
2018-06-22T02:27:13.345Z,4.00
2018-06-22T02:27:13.944Z,4.00
2018-06-22T02:28:08.451Z,4.00
2018-06-22T02:28:09.021Z,4.00
2018-06-22T02:28:09.621Z,4.00
2018-06-22T02:28:10.223Z,4.00
2018-06-22T02:28:10.821Z,4.00
2018-06-22T02:28:11.425Z,4.00
2018-06-22T02:28:12.022Z,4.00
2018-06-22T02:28:12.622Z,4.00
2018-06-22T02:29:06.105Z,0.00
2018-06-22T02:29:06.675Z,0.00
2018-06-22T02:29:07.275Z,4.00
2018-06-22T02:29:07.879Z,0.00
2018-06-22T02:29:08.473Z,0.00
2018-06-22T02:29:09.077Z,0.00
2018-06-22T02:29:09.672Z,0.00
2018-06-22T02:29:10.272Z,4.00
2018-06-22T02:30:03.754Z,4.00
2018-06-22T02:30:04.327Z,4.00
2018-06-22T02:30:04.932Z,4.00
2018-06-22T02:30:05.528Z,4.00
2018-06-22T02:30:06.126Z,4.00
2018-06-22T02:30:06.728Z,4.00
2018-06-22T02:30:07.326Z,4.00
2018-06-22T02:30:07.931Z,4.00
2018-06-22T02:31:02.433Z,4.00
2018-06-22T02:31:03.000Z,4.00
2018-06-22T02:31:03.602Z,4.00
2018-06-22T02:31:04.200Z,4.00
2018-06-22T02:31:04.799Z,4.00
2018-06-22T02:31:05.400Z,4.00
2018-06-22T02:31:06.000Z,4.00
2018-06-22T02:31:06.602Z,4.00
2018-06-22T02:32:01.103Z,8.00
2018-06-22T02:32:01.679Z,8.00
2018-06-22T02:32:02.276Z,8.00
2018-06-22T02:32:02.879Z,8.00
2018-06-22T02:32:03.477Z,8.00
2018-06-22T02:32:04.078Z,8.00
2018-06-22T02:32:04.678Z,4.00
2018-06-22T02:32:05.278Z,8.00
2018-06-22T02:32:58.761Z,4.00
2018-06-22T02:32:59.331Z,4.00
2018-06-22T02:32:59.929Z,4.00
2018-06-22T02:33:00.529Z,4.00
2018-06-22T02:33:01.129Z,4.00
2018-06-22T02:33:01.730Z,4.00
2018-06-22T02:33:02.328Z,4.00
2018-06-22T02:33:02.930Z,4.00
2018-06-22T02:33:56.409Z,8.00
2018-06-22T02:33:56.982Z,8.00
2018-06-22T02:33:57.583Z,8.00
2018-06-22T02:33:58.181Z,8.00
2018-06-22T02:33:58.781Z,8.00
2018-06-22T02:33:59.383Z,8.00
2018-06-22T02:33:59.981Z,8.00
2018-06-22T02:34:00.581Z,8.00
2018-06-22T02:34:55.084Z,4.00
2018-06-22T02:34:55.655Z,4.00
2018-06-22T02:34:56.256Z,4.00
2018-06-22T02:34:56.856Z,4.00
2018-06-22T02:34:57.457Z,4.00
2018-06-22T02:34:58.057Z,4.00
2018-06-22T02:34:58.663Z,4.00
2018-06-22T02:34:59.256Z,4.00
2018-06-22T02:35:52.744Z,8.00
2018-06-22T02:35:53.310Z,8.00
2018-06-22T02:35:53.908Z,8.00
2018-06-22T02:35:54.509Z,8.00
2018-06-22T02:35:55.110Z,8.00
2018-06-22T02:35:55.712Z,8.00
2018-06-22T02:35:56.309Z,8.00
2018-06-22T02:35:56.907Z,8.00
2018-06-22T02:36:51.410Z,8.00
2018-06-22T02:36:51.984Z,8.00
2018-06-22T02:36:52.584Z,8.00
2018-06-22T02:36:53.235Z,8.00
2018-06-22T02:36:53.782Z,8.00
2018-06-22T02:36:54.386Z,8.00
2018-06-22T02:36:54.983Z,8.00
2018-06-22T02:36:55.583Z,8.00
2018-06-22T02:37:49.065Z,12.00
2018-06-22T02:37:49.637Z,12.00
2018-06-22T02:37:50.238Z,12.00
2018-06-22T02:37:50.836Z,12.00
2018-06-22T02:37:51.438Z,12.00
2018-06-22T02:37:52.037Z,12.00
2018-06-22T02:37:52.635Z,12.00
2018-06-22T02:37:53.238Z,12.00
2018-06-22T02:38:46.725Z,8.00
2018-06-22T02:38:47.288Z,8.00
2018-06-22T02:38:47.887Z,8.00
2018-06-22T02:38:48.498Z,8.00
2018-06-22T02:38:49.089Z,8.00
2018-06-22T02:38:49.689Z,8.00
2018-06-22T02:38:50.286Z,8.00
2018-06-22T02:38:50.885Z,8.00
2018-06-22T02:39:44.378Z,8.00
2018-06-22T02:39:44.944Z,8.00
2018-06-22T02:39:45.541Z,8.00
2018-06-22T02:39:46.139Z,8.00
2018-06-22T02:39:46.739Z,8.00
2018-06-22T02:39:47.347Z,8.00
2018-06-22T02:39:47.944Z,8.00
2018-06-22T02:39:48.539Z,8.00
2018-06-22T02:40:42.099Z,12.00
2018-06-22T02:40:42.590Z,12.00
2018-06-22T02:40:43.196Z,12.00
2018-06-22T02:40:43.790Z,12.00
2018-06-22T02:40:44.398Z,12.00
2018-06-22T02:40:44.995Z,12.00
2018-06-22T02:40:45.589Z,12.00
2018-06-22T02:40:46.187Z,12.00
2018-06-22T02:41:40.700Z,12.00
2018-06-22T02:41:41.268Z,12.00
2018-06-22T02:41:41.867Z,12.00
2018-06-22T02:41:42.469Z,12.00
2018-06-22T02:41:43.069Z,12.00
2018-06-22T02:41:43.667Z,12.00
2018-06-22T02:41:44.269Z,12.00
2018-06-22T02:41:44.867Z,12.00
2018-06-22T02:42:38.347Z,12.00
2018-06-22T02:42:38.918Z,12.00
2018-06-22T02:42:39.519Z,12.00
2018-06-22T02:42:40.120Z,12.00
2018-06-22T02:42:40.719Z,12.00
2018-06-22T02:42:41.320Z,12.00
2018-06-22T02:42:41.918Z,12.00
2018-06-22T02:42:42.517Z,12.00
2018-06-22T02:43:37.022Z,12.00
2018-06-22T02:43:37.595Z,12.00
2018-06-22T02:43:38.194Z,12.00
2018-06-22T02:43:38.794Z,12.00
2018-06-22T02:43:39.393Z,12.00
2018-06-22T02:43:39.996Z,12.00
2018-06-22T02:43:40.592Z,12.00
2018-06-22T02:43:41.193Z,12.00
2018-06-22T02:44:34.706Z,16.00
2018-06-22T02:44:35.246Z,16.00
2018-06-22T02:44:35.846Z,16.00
2018-06-22T02:44:36.445Z,16.00
2018-06-22T02:44:37.045Z,16.00
2018-06-22T02:44:37.649Z,16.00
2018-06-22T02:44:38.244Z,16.00
2018-06-22T02:44:38.845Z,16.00
2018-06-22T02:45:32.326Z,16.00
2018-06-22T02:45:32.897Z,16.00
2018-06-22T02:45:33.497Z,16.00
2018-06-22T02:45:34.098Z,16.00
2018-06-22T02:45:34.697Z,16.00
2018-06-22T02:45:35.299Z,16.00
2018-06-22T02:45:35.897Z,16.00
2018-06-22T02:45:36.496Z,16.00
2018-06-22T02:46:31.004Z,20.00
2018-06-22T02:46:31.572Z,20.00
2018-06-22T02:46:32.179Z,20.00
2018-06-22T02:46:32.771Z,20.00
2018-06-22T02:46:33.373Z,20.00
2018-06-22T02:46:33.974Z,20.00
2018-06-22T02:46:34.575Z,20.00
2018-06-22T02:46:35.172Z,20.00
2018-06-22T02:47:28.658Z,20.00
2018-06-22T02:47:29.226Z,16.00
2018-06-22T02:47:29.826Z,16.00
2018-06-22T02:47:30.426Z,16.00
2018-06-22T02:47:31.026Z,20.00
2018-06-22T02:47:31.626Z,20.00
2018-06-22T02:47:32.227Z,16.00
2018-06-22T02:47:32.825Z,16.00
2018-06-22T02:48:26.309Z,20.00
2018-06-22T02:48:26.877Z,20.00
2018-06-22T02:48:27.489Z,20.00
2018-06-22T02:48:28.076Z,20.00
2018-06-22T02:48:28.677Z,20.00
2018-06-22T02:48:29.279Z,20.00
2018-06-22T02:48:29.877Z,20.00
2018-06-22T02:48:30.476Z,20.00
2018-06-22T02:49:24.978Z,24.00
2018-06-22T02:49:25.551Z,24.00
2018-06-22T02:49:26.150Z,24.00
2018-06-22T02:49:26.752Z,24.00
2018-06-22T02:49:27.353Z,24.00
2018-06-22T02:49:27.953Z,24.00
2018-06-22T02:49:28.550Z,24.00
2018-06-22T02:49:29.149Z,24.00
2018-06-22T02:50:23.659Z,24.00
2018-06-22T02:50:24.229Z,24.00
2018-06-22T02:50:24.825Z,24.00
2018-06-22T02:50:25.430Z,24.00
2018-06-22T02:50:26.025Z,24.00
2018-06-22T02:50:26.628Z,24.00
2018-06-22T02:50:27.225Z,24.00
2018-06-22T02:50:27.826Z,24.00
2018-06-22T02:51:22.336Z,24.00
2018-06-22T02:51:22.904Z,24.00
2018-06-22T02:51:23.503Z,24.00
2018-06-22T02:51:24.103Z,24.00
2018-06-22T02:51:24.702Z,24.00
2018-06-22T02:51:25.304Z,24.00
2018-06-22T02:51:25.902Z,24.00
2018-06-22T02:51:26.508Z,24.00
2018-06-22T02:52:21.005Z,28.00
2018-06-22T02:52:21.580Z,28.00
2018-06-22T02:52:22.181Z,28.00
2018-06-22T02:52:22.780Z,28.00
2018-06-22T02:52:23.378Z,28.00
2018-06-22T02:52:23.982Z,28.00
2018-06-22T02:52:24.578Z,28.00
2018-06-22T02:52:25.178Z,28.00
2018-06-22T02:53:18.662Z,32.00
2018-06-22T02:53:19.234Z,32.00
2018-06-22T02:53:19.831Z,32.00
2018-06-22T02:53:20.431Z,32.00
2018-06-22T02:53:21.030Z,32.00
2018-06-22T02:53:21.633Z,32.00
2018-06-22T02:53:22.277Z,32.00
2018-06-22T02:53:22.829Z,32.00
2018-06-22T02:54:17.340Z,32.00
2018-06-22T02:54:17.911Z,32.00
2018-06-22T02:54:18.506Z,32.00
2018-06-22T02:54:19.107Z,32.00
2018-06-22T02:54:19.706Z,32.00
2018-06-22T02:54:20.307Z,32.00
2018-06-22T02:54:20.912Z,32.00
2018-06-22T02:54:21.506Z,32.00
2018-06-22T02:55:16.016Z,32.00
2018-06-22T02:55:16.581Z,32.00
2018-06-22T02:55:17.180Z,32.00
2018-06-22T02:55:17.781Z,32.00
2018-06-22T02:55:18.379Z,32.00
2018-06-22T02:55:18.984Z,32.00
2018-06-22T02:55:19.580Z,32.00
2018-06-22T02:55:20.179Z,32.00
2018-06-22T02:56:13.667Z,36.00
2018-06-22T02:56:14.234Z,36.00
2018-06-22T02:56:14.834Z,36.00
2018-06-22T02:56:15.435Z,36.00
2018-06-22T02:56:16.034Z,36.00
2018-06-22T02:56:16.638Z,36.00
2018-06-22T02:56:17.234Z,36.00
2018-06-22T02:56:17.833Z,36.00
2018-06-22T02:57:11.319Z,40.00
2018-06-22T02:57:11.885Z,40.00
2018-06-22T02:57:12.490Z,40.00
2018-06-22T02:57:13.089Z,40.00
2018-06-22T02:57:13.686Z,40.00
2018-06-22T02:57:14.289Z,40.00
2018-06-22T02:57:14.885Z,40.00
2018-06-22T02:57:15.487Z,40.00
2018-06-22T02:58:09.994Z,40.00
2018-06-22T02:58:10.561Z,40.00
2018-06-22T02:58:11.161Z,40.00
2018-06-22T02:58:11.760Z,40.00
2018-06-22T02:58:12.360Z,40.00
2018-06-22T02:58:12.963Z,40.00
2018-06-22T02:58:13.561Z,40.00
2018-06-22T02:58:14.165Z,40.00
2018-06-22T02:59:08.670Z,44.00
2018-06-22T02:59:09.237Z,44.00
2018-06-22T02:59:09.840Z,44.00
2018-06-22T02:59:10.436Z,44.00
2018-06-22T02:59:11.036Z,44.00
2018-06-22T02:59:11.641Z,48.00
2018-06-22T02:59:12.239Z,48.00
2018-06-22T02:59:12.837Z,48.00
2018-06-22T03:00:06.322Z,48.00
2018-06-22T03:00:06.889Z,48.00
2018-06-22T03:00:07.491Z,48.00
2018-06-22T03:00:08.090Z,48.00
2018-06-22T03:00:08.688Z,48.00
2018-06-22T03:00:09.289Z,48.00
2018-06-22T03:00:09.889Z,48.00
2018-06-22T03:00:10.489Z,48.00
2018-06-22T03:01:03.972Z,52.00
2018-06-22T03:01:04.543Z,52.00
2018-06-22T03:01:05.141Z,52.00
2018-06-22T03:01:05.742Z,52.00
2018-06-22T03:01:06.341Z,52.00
2018-06-22T03:01:06.946Z,52.00
2018-06-22T03:01:07.541Z,52.00
2018-06-22T03:01:08.144Z,52.00
2018-06-22T03:02:02.645Z,56.00
2018-06-22T03:02:03.216Z,56.00
2018-06-22T03:02:03.815Z,56.00
2018-06-22T03:02:04.416Z,56.00
2018-06-22T03:02:05.017Z,56.00
2018-06-22T03:02:05.617Z,56.00
2018-06-22T03:02:06.216Z,56.00
2018-06-22T03:02:06.817Z,56.00
2018-06-22T03:03:01.323Z,56.00
2018-06-22T03:03:01.895Z,56.00
2018-06-22T03:03:02.493Z,56.00
2018-06-22T03:03:03.092Z,56.00
2018-06-22T03:03:03.691Z,56.00
2018-06-22T03:03:04.292Z,56.00
2018-06-22T03:03:04.892Z,56.00
2018-06-22T03:03:05.492Z,56.00
2018-06-22T03:03:59.999Z,60.00
2018-06-22T03:04:00.565Z,60.00
2018-06-22T03:04:01.168Z,60.00
2018-06-22T03:04:01.767Z,60.00
2018-06-22T03:04:02.370Z,60.00
2018-06-22T03:04:02.968Z,60.00
2018-06-22T03:04:03.565Z,60.00
2018-06-22T03:04:04.164Z,60.00
2018-06-22T03:04:58.675Z,64.00
2018-06-22T03:04:59.242Z,64.00
2018-06-22T03:04:59.845Z,64.00
2018-06-22T03:05:00.445Z,64.00
2018-06-22T03:05:01.042Z,64.00
2018-06-22T03:05:01.644Z,64.00
2018-06-22T03:05:02.246Z,64.00
2018-06-22T03:05:02.842Z,60.00